Time;durP1;ratioP1;P1;durP2;ratioP2;P2;SDS_P1;SDS_P2;PMS_P1;PMS_P2;Temp;Humidity;BMP_temperature;BMP_pressure;BME280_temperature;BME280_humidity;BME280_pressure;Samples;Min_cycle;Max_cycle;Signal;HPM_P1;HPM_P2
2022/01/12 00:00:45;;;;;;;79.75;29.58;;;;;;;2.55;100.00;103671.03;5053880;28;20057;-72
2022/01/12 00:03:10;;;;;;;78.53;28.83;;;;;;;2.55;100.00;103676.28;5053787;28;20036;-72
2022/01/12 00:05:36;;;;;;;76.05;28.27;;;;;;;2.56;100.00;103678.88;5055954;28;20043;-72
2022/01/12 00:08:01;;;;;;;78.07;28.83;;;;;;;2.57;100.00;103675.38;5054268;28;20025;-74
2022/01/12 00:10:26;;;;;;;84.20;29.42;;;;;;;2.59;100.00;103667.47;5055437;28;20507;-72
2022/01/12 00:12:52;;;;;;;82.20;27.27;;;;;;;2.58;100.00;103660.47;5054669;28;20035;-72
2022/01/12 00:15:17;;;;;;;85.93;29.00;;;;;;;2.57;100.00;103658.75;5054967;28;20457;-72
2022/01/12 00:17:44;;;;;;;76.85;27.95;;;;;;;2.58;100.00;103652.56;5055606;28;20084;-72
2022/01/12 00:20:10;;;;;;;80.70;28.30;;;;;;;2.57;100.00;103640.34;5057797;28;20135;-72
2022/01/12 00:22:37;;;;;;;80.95;27.45;;;;;;;2.57;100.00;103628.06;5054766;28;20477;-72
2022/01/12 00:25:22;;;;;;;82.72;29.55;;;;;;;2.56;100.00;103631.56;5054825;28;20068;-72
2022/01/12 00:33:16;;;;;;;78.68;27.05;;;;;;;2.54;100.00;103641.25;5055699;28;20091;-72
2022/01/12 00:35:46;;;;;;;81.93;27.48;;;;;;;2.54;100.00;103654.38;5055047;28;20061;-72
2022/01/12 00:38:13;;;;;;;79.70;27.08;;;;;;;2.56;100.00;103665.75;5054447;28;20100;-72
2022/01/12 00:40:48;;;;;;;83.68;27.50;;;;;;;2.58;100.00;103669.25;5054194;28;20086;-72
2022/01/12 00:43:14;;;;;;;72.95;26.83;;;;;;;2.58;100.00;103670.97;5054544;28;20099;-72
2022/01/12 00:45:45;;;;;;;81.78;27.30;;;;;;;2.57;100.00;103671.88;5053270;28;20036;-72
2022/01/12 00:48:11;;;;;;;75.07;25.73;;;;;;;2.57;100.00;103664.88;5053416;28;20033;-73
2022/01/12 00:50:38;;;;;;;83.00;27.33;;;;;;;2.57;100.00;103667.50;5054421;28;20036;-72
2022/01/12 00:53:04;;;;;;;84.80;28.45;;;;;;;2.57;100.00;103659.59;5053287;28;20059;-72
2022/01/12 00:55:31;;;;;;;88.85;27.67;;;;;;;2.58;100.00;103663.09;5054507;28;20036;-72
2022/01/12 00:57:58;;;;;;;86.32;28.42;;;;;;;2.57;100.00;103662.22;5054332;28;20354;-72
2022/01/12 01:00:25;;;;;;;90.07;27.48;;;;;;;2.59;100.00;103670.09;5052838;28;20036;-72
2022/01/12 01:02:51;;;;;;;93.57;28.58;;;;;;;2.59;100.00;103659.59;5049969;28;20076;-75
2022/01/12 01:05:20;;;;;;;85.93;28.25;;;;;;;2.60;100.00;103656.09;5051634;28;20108;-75
2022/01/12 01:07:46;;;;;;;90.22;28.40;;;;;;;2.61;100.00;103650.81;5051939;28;20048;-74
2022/01/12 01:10:16;;;;;;;97.55;28.02;;;;;;;2.63;100.00;103650.78;5051687;28;20032;-76
2022/01/12 01:12:42;;;;;;;78.30;25.83;;;;;;;2.64;100.00;103644.63;5050987;28;20419;-74
2022/01/12 01:15:12;;;;;;;81.20;27.38;;;;;;;2.64;100.00;103647.25;5049957;28;20033;-74
2022/01/12 01:25:45;;;;;;;85.93;26.65;;;;;;;2.62;100.00;103649.88;5051223;28;20047;-75
2022/01/12 01:28:12;;;;;;;92.43;27.80;;;;;;;2.61;100.00;103642.03;5050971;28;20350;-74
2022/01/12 01:30:40;;;;;;;80.85;27.27;;;;;;;2.60;100.00;103653.44;5050911;28;20121;-74
2022/01/12 01:33:09;;;;;;;94.35;28.92;;;;;;;2.61;100.00;103655.16;5032936;28;20029;-75
2022/01/12 01:35:41;;;;;;;89.90;28.85;;;;;;;2.62;100.00;103659.53;5050806;28;20021;-75
2022/01/12 01:38:08;;;;;;;83.68;28.60;;;;;;;2.65;100.00;103667.41;5050700;28;20037;-74
2022/01/12 01:40:36;;;;;;;89.75;28.98;;;;;;;2.68;100.00;103683.13;5050218;28;20112;-74
2022/01/12 01:53:51;;;;;;;77.63;27.83;;;;;;;2.74;100.00;103759.31;5049256;28;20060;-73
2022/01/12 01:56:19;;;;;;;85.07;28.02;;;;;;;2.75;100.00;103755.81;5048878;28;20056;-75
2022/01/12 01:58:45;;;;;;;82.88;28.48;;;;;;;2.75;100.00;103761.06;5050235;28;20199;-73
2022/01/12 02:01:10;;;;;;;87.00;28.67;;;;;;;2.78;100.00;103763.66;5050387;28;20410;-73
2022/01/12 02:03:36;;;;;;;86.07;28.38;;;;;;;2.85;100.00;103755.69;5050408;28;20052;-73
2022/01/12 02:06:04;;;;;;;82.28;28.50;;;;;;;2.89;100.00;103760.03;5049353;28;20032;-73
2022/01/12 02:08:30;;;;;;;80.45;26.75;;;;;;;2.93;100.00;103767.88;5050433;28;20441;-73
2022/01/12 02:10:57;;;;;;;81.93;27.98;;;;;;;2.96;100.00;103765.19;5050135;28;20057;-73
2022/01/12 02:13:23;;;;;;;82.20;26.10;;;;;;;2.99;100.00;103772.19;5049945;28;20029;-73
2022/01/12 02:15:50;;;;;;;74.53;26.05;;;;;;;2.98;100.00;103768.69;5049716;28;20057;-72
2022/01/12 02:40:10;;;;;;;81.03;28.10;;;;;;;3.17;100.00;103789.53;5049900;28;20554;-73
2022/01/12 02:42:39;;;;;;;94.30;27.35;;;;;;;3.20;100.00;103788.63;5049578;28;20483;-73
2022/01/12 02:50:42;;;;;;;98.65;29.48;;;;;;;3.21;100.00;103785.97;5049846;28;20121;-73
2022/01/12 02:55:52;;;;;;;104.85;29.27;;;;;;;3.25;100.00;103782.38;5049716;28;20052;-73
2022/01/12 02:58:17;;;;;;;106.45;30.85;;;;;;;3.27;100.00;103782.38;5047962;28;20026;-73
2022/01/12 03:01:03;;;;;;;101.78;29.63;;;;;;;3.29;100.00;103789.38;5049549;28;20029;-73
2022/01/12 03:03:32;;;;;;;101.47;28.80;;;;;;;3.29;100.00;103781.47;5049637;28;20452;-74
2022/01/12 03:06:04;;;;;;;96.40;29.45;;;;;;;3.27;100.00;103778.00;5052759;28;20035;-73
2022/01/12 03:08:36;;;;;;;106.45;30.00;;;;;;;3.27;100.00;103770.09;5053574;28;20056;-74
2022/01/12 03:11:03;;;;;;;114.03;31.10;;;;;;;3.31;100.00;103770.91;5053367;28;20060;-73
2022/01/12 03:13:29;;;;;;;116.22;32.60;;;;;;;3.30;100.00;103766.53;5052820;28;20316;-74
2022/01/12 03:15:54;;;;;;;106.35;28.67;;;;;;;3.28;100.00;103768.31;5052488;28;20137;-73
2022/01/12 03:18:20;;;;;;;117.80;32.22;;;;;;;3.28;100.00;103779.72;5052821;28;20338;-73
2022/01/12 03:20:45;;;;;;;112.88;31.58;;;;;;;3.30;100.00;103791.13;5051241;28;20037;-73
2022/01/12 03:23:14;;;;;;;122.20;32.42;;;;;;;3.29;100.00;103794.63;5052859;28;20037;-74
2022/01/12 03:25:39;;;;;;;119.72;30.98;;;;;;;3.27;100.00;103795.53;5051293;28;20342;-73
2022/01/12 03:28:07;;;;;;;111.85;30.55;;;;;;;3.21;100.00;103787.72;5052918;28;20029;-73
2022/01/12 03:30:52;;;;;;;128.50;33.28;;;;;;;3.15;100.00;103800.06;5052791;28;20044;-74
2022/01/12 03:36:25;;;;;;;128.68;32.72;;;;;;;3.00;100.00;103810.75;5052965;28;20094;-74
2022/01/12 03:39:02;;;;;;;140.40;32.42;;;;;;;2.99;100.00;103811.66;5052643;28;20033;-74
2022/01/12 03:41:30;;;;;;;136.77;32.80;;;;;;;2.99;100.00;103811.66;5052521;28;20376;-74
2022/01/12 03:43:58;;;;;;;137.95;32.95;;;;;;;2.99;100.00;103819.56;5050860;28;20033;-74
2022/01/12 03:46:27;;;;;;;137.10;32.92;;;;;;;2.99;100.00;103817.78;5052738;28;20037;-74
2022/01/12 03:48:53;;;;;;;136.05;33.60;;;;;;;3.00;100.00;103813.38;5052257;28;20028;-74
2022/01/12 03:51:18;;;;;;;144.15;32.45;;;;;;;3.00;100.00;103821.28;5052382;28;20128;-73
2022/01/12 03:53:43;;;;;;;143.93;34.00;;;;;;;3.00;100.00;103822.16;5051917;28;20059;-74
2022/01/12 03:56:09;;;;;;;140.32;33.63;;;;;;;3.02;100.00;103819.50;5052030;28;20029;-73
2022/01/12 03:58:35;;;;;;;149.07;34.65;;;;;;;3.03;100.00;103825.63;5052410;28;20044;-75
2022/01/12 04:01:00;;;;;;;133.48;31.33;;;;;;;2.98;100.00;103813.41;5052226;28;20121;-73
2022/01/12 04:03:27;;;;;;;133.23;31.58;;;;;;;2.91;100.00;103816.13;5050951;28;20037;-73
2022/01/12 04:08:37;;;;;;;151.25;33.90;;;;;;;2.72;100.00;103805.81;5052092;28;20409;-74
2022/01/12 04:11:02;;;;;;;151.32;33.95;;;;;;;2.68;100.00;103809.34;5052015;28;20021;-73
2022/01/12 04:13:29;;;;;;;150.27;33.08;;;;;;;2.66;100.00;103811.13;5050359;28;20044;-73
2022/01/12 04:16:02;;;;;;;171.52;35.83;;;;;;;2.66;100.00;103803.22;5049012;28;20442;-73
2022/01/12 04:18:28;;;;;;;189.27;36.30;;;;;;;2.69;100.00;103807.56;5052218;28;20534;-73
2022/01/12 04:20:54;;;;;;;188.70;37.33;;;;;;;2.70;100.00;103815.44;5051822;28;20082;-72
2022/01/12 04:23:21;;;;;;;177.18;36.65;;;;;;;2.68;100.00;103819.00;5052073;28;20054;-73
2022/01/12 04:25:52;;;;;;;185.45;36.15;;;;;;;2.64;100.00;103833.91;5051551;28;20103;-73
2022/01/12 04:28:20;;;;;;;165.90;34.57;;;;;;;2.59;100.00;103835.72;5050460;28;20033;-73
2022/01/12 04:30:47;;;;;;;151.07;32.70;;;;;;;2.49;100.00;103845.44;5051851;28;20279;-73
2022/01/12 04:33:12;;;;;;;125.80;30.15;;;;;;;2.32;100.00;103834.22;5051742;28;20038;-73
2022/01/12 04:35:46;;;;;;;141.30;32.33;;;;;;;2.17;100.00;103836.06;5050407;28;20434;-72
2022/01/12 04:38:12;;;;;;;134.48;30.83;;;;;;;2.00;100.00;103825.69;5051912;28;20102;-75
2022/01/12 04:40:38;;;;;;;133.20;31.00;;;;;;;1.84;100.00;103819.63;5052016;28;20063;-74
2022/01/12 04:43:04;;;;;;;135.57;30.33;;;;;;;1.70;100.00;103816.22;5051638;28;20094;-73
2022/01/12 04:50:25;;;;;;;159.07;32.35;;;;;;;1.36;100.00;103814.63;5049924;28;20041;-73
2022/01/12 04:52:51;;;;;;;113.20;28.67;;;;;;;1.27;100.00;103835.66;5051216;28;20037;-73
2022/01/12 04:55:17;;;;;;;128.52;30.45;;;;;;;1.22;100.00;103835.69;5051059;28;20037;-73
2022/01/12 04:57:43;;;;;;;158.32;32.08;;;;;;;1.19;100.00;103824.31;5051251;28;20471;-73
2022/01/12 05:00:16;;;;;;;125.78;29.75;;;;;;;1.09;100.00;103826.09;5050778;28;20406;-73
2022/01/12 05:08:17;;;;;;;130.38;28.45;;;;;;;0.67;100.00;103841.00;5051258;28;20194;-73
2022/01/12 05:13:27;;;;;;;104.45;25.50;;;;;;;0.43;100.00;103852.38;5051154;28;20059;-73
2022/01/12 05:15:53;;;;;;;94.10;24.40;;;;;;;0.33;100.00;103848.91;5050562;28;20413;-73
2022/01/12 05:18:18;;;;;;;98.13;24.25;;;;;;;0.21;100.00;103844.53;5050617;28;20040;-73
2022/01/12 05:20:45;;;;;;;84.43;24.60;;;;;;;0.10;100.00;103841.88;5050803;28;20048;-73
2022/01/12 05:23:10;;;;;;;89.85;24.08;;;;;;;0.02;100.00;103838.38;5050814;28;20033;-73
2022/01/12 05:25:35;;;;;;;78.82;22.85;;;;;;;-0.07;100.00;103839.22;5050844;28;20142;-73
2022/01/12 05:28:01;;;;;;;67.25;20.65;;;;;;;-0.13;100.00;103851.44;5048664;28;20048;-73
2022/01/12 05:30:26;;;;;;;75.60;21.23;;;;;;;-0.20;100.00;103846.16;5049639;28;20072;-73
2022/01/12 05:32:52;;;;;;;79.72;21.27;;;;;;;-0.25;100.00;103853.13;5050711;28;20493;-75
2022/01/12 05:35:18;;;;;;;80.25;22.67;;;;;;;-0.32;100.00;103856.59;5050387;28;20044;-74
2022/01/12 05:37:44;;;;;;;91.47;22.20;;;;;;;-0.39;100.00;103860.06;5049229;28;20029;-73
2022/01/12 05:40:11;;;;;;;63.03;19.33;;;;;;;-0.48;100.00;103868.72;5050079;28;20478;-73
2022/01/12 05:42:37;;;;;;;59.75;18.52;;;;;;;-0.56;100.00;103871.31;5050633;28;20045;-72
2022/01/12 05:45:04;;;;;;;59.75;19.38;;;;;;;-0.64;100.00;103878.28;5050434;28;20032;-73
2022/01/12 05:49:33;;;;;;;53.70;17.45;;;;;;;-0.73;100.00;103873.88;5050327;28;20033;-73
2022/01/12 05:50:19;;;;;;;47.45;15.75;;;;;;;-0.80;100.00;103869.47;5050002;28;20464;-73
2022/01/12 05:52:45;;;;;;;40.60;14.57;;;;;;;-0.85;100.00;103870.28;5050185;28;20445;-73
2022/01/12 05:55:11;;;;;;;44.40;15.80;;;;;;;-0.86;100.00;103882.50;5050380;28;20055;-73
2022/01/12 05:57:38;;;;;;;46.33;15.65;;;;;;;-0.89;100.00;103880.72;5050506;28;20033;-73
2022/01/12 06:00:09;;;;;;;37.50;15.88;;;;;;;-0.89;100.00;103880.72;5050004;28;20048;-74
2022/01/12 06:02:35;;;;;;;56.13;15.77;;;;;;;-0.89;100.00;103892.94;5050203;28;20048;-75
2022/01/12 06:05:02;;;;;;;28.00;13.95;;;;;;;-0.90;100.00;103892.06;5050281;28;20041;-73
2022/01/12 06:07:27;;;;;;;56.50;16.65;;;;;;;-0.89;100.00;103904.25;5049822;28;20044;-73
2022/01/12 06:09:52;;;;;;;46.45;17.77;;;;;;;-0.87;100.00;103906.03;5048374;28;20060;-73
2022/01/12 06:12:18;;;;;;;57.60;18.05;;;;;;;-0.85;100.00;103915.63;5048697;28;20039;-74
2022/01/12 06:14:43;;;;;;;72.25;18.25;;;;;;;-0.84;100.00;103909.53;5049839;28;20044;-74
2022/01/12 06:17:10;;;;;;;40.85;17.30;;;;;;;-0.82;100.00;103922.59;5050395;28;20458;-74
2022/01/12 06:19:35;;;;;;;56.88;18.15;;;;;;;-0.81;100.00;103920.00;5049948;28;20049;-73
2022/01/12 06:22:01;;;;;;;41.72;16.83;;;;;;;-0.81;100.00;103920.00;5049969;28;20480;-75
2022/01/12 06:24:26;;;;;;;46.45;18.20;;;;;;;-0.81;100.00;103919.13;5050117;28;20037;-74
2022/01/12 06:26:52;;;;;;;48.38;18.40;;;;;;;-0.81;100.00;103924.34;5031817;28;20083;-75
2022/01/12 06:31:46;;;;;;;82.68;20.95;;;;;;;-0.80;100.00;103933.97;5048747;28;20052;-75
2022/01/12 06:34:12;;;;;;;57.35;18.30;;;;;;;-0.80;100.00;103940.06;5049723;28;20029;-74
2022/01/12 06:36:37;;;;;;;84.90;20.13;;;;;;;-0.81;100.00;103933.06;5050112;28;20295;-76
2022/01/12 06:39:06;;;;;;;56.83;19.73;;;;;;;-0.81;100.00;103934.81;5049873;28;20079;-77
2022/01/12 06:41:32;;;;;;;102.57;22.17;;;;;;;-0.82;100.00;103943.53;5053870;28;20040;-74
2022/01/12 06:43:57;;;;;;;120.03;22.52;;;;;;;-0.80;100.00;103939.19;5052451;28;20044;-76
2022/01/12 06:46:26;;;;;;;57.97;20.27;;;;;;;-0.79;100.00;103943.53;5054074;28;20047;-74
2022/01/12 06:48:52;;;;;;;64.13;21.05;;;;;;;-0.81;100.00;103938.28;5054025;28;20119;-74
2022/01/12 06:51:17;;;;;;;67.97;21.58;;;;;;;-0.81;100.00;103950.50;5053787;28;20118;-74
2022/01/12 06:53:42;;;;;;;59.92;21.77;;;;;;;-0.79;100.00;103959.22;5053868;28;20135;-75
2022/01/12 06:56:08;;;;;;;55.63;20.02;;;;;;;-0.81;100.00;103964.44;5053410;28;20080;-75
2022/01/12 06:58:34;;;;;;;70.82;21.63;;;;;;;-0.81;100.00;103969.69;5052241;28;20041;-80
2022/01/12 07:01:00;;;;;;;173.13;24.95;;;;;;;-0.80;100.00;103974.06;5053932;28;20373;-75
2022/01/12 07:03:25;;;;;;;80.57;22.50;;;;;;;-0.80;100.00;103979.28;5053629;28;20056;-75
2022/01/12 07:05:50;;;;;;;76.80;21.65;;;;;;;-0.79;100.00;103985.38;5053498;28;20469;-73
2022/01/12 07:08:16;;;;;;;64.18;22.08;;;;;;;-0.82;100.00;103985.34;5053209;28;20132;-77
2022/01/12 07:10:42;;;;;;;61.83;21.02;;;;;;;-0.86;100.00;103983.59;5053480;28;20091;-74
2022/01/12 07:13:10;;;;;;;60.95;20.63;;;;;;;-0.91;100.00;103979.22;5053179;28;20041;-73
2022/01/12 07:15:40;;;;;;;64.78;22.02;;;;;;;-0.93;100.00;103978.28;5052617;28;20052;-74
2022/01/12 07:18:06;;;;;;;77.00;22.80;;;;;;;-0.96;100.00;103978.28;5053711;28;20120;-75
2022/01/12 07:20:31;;;;;;;85.43;25.85;;;;;;;-0.99;100.00;103975.63;5053151;28;20108;-74
2022/01/12 07:22:57;;;;;;;72.57;23.05;;;;;;;-1.03;100.00;103975.59;5053205;28;20337;-73
2022/01/12 07:25:22;;;;;;;67.18;22.60;;;;;;;-1.06;100.00;103973.84;5053331;28;20036;-75
2022/01/12 07:27:47;;;;;;;61.78;22.40;;;;;;;-1.07;100.00;103980.81;5053764;28;20489;-74
2022/01/12 07:30:13;;;;;;;64.88;22.00;;;;;;;-1.07;100.00;103982.56;5051306;28;20037;-74
2022/01/12 07:32:38;;;;;;;61.75;20.63;;;;;;;-1.05;100.00;103988.66;5051688;28;20124;-74
2022/01/12 07:35:05;;;;;;;59.05;20.52;;;;;;;-1.03;100.00;103992.19;5053551;28;20039;-72
2022/01/12 07:37:30;;;;;;;67.13;22.48;;;;;;;-1.02;100.00;103993.91;5053157;28;20033;-75
2022/01/12 07:39:56;;;;;;;87.50;23.15;;;;;;;-1.02;100.00;103993.03;5053222;28;20044;-76
2022/01/12 07:42:21;;;;;;;85.35;22.55;;;;;;;-1.02;100.00;103995.66;5051442;28;20037;-72
2022/01/12 07:44:47;;;;;;;75.20;22.88;;;;;;;-1.02;100.00;103996.53;5052854;28;20044;-74
2022/01/12 07:47:12;;;;;;;138.57;26.52;;;;;;;-1.04;100.00;103989.56;5052775;28;20029;-73
2022/01/12 07:49:38;;;;;;;82.85;24.63;;;;;;;-1.05;100.00;104003.47;5034951;28;20029;-73
2022/01/12 07:52:04;;;;;;;65.90;23.27;;;;;;;-1.10;100.00;104004.31;5051473;28;20055;-74
2022/01/12 07:54:30;;;;;;;71.35;22.40;;;;;;;-1.12;100.00;104007.75;5052660;28;20028;-75
2022/01/12 07:56:55;;;;;;;67.57;22.13;;;;;;;-1.16;100.00;104016.47;5052905;28;20334;-76
2022/01/12 07:59:21;;;;;;;81.05;23.60;;;;;;;-1.17;100.00;104023.41;5052727;28;20033;-74
2022/01/12 08:01:46;;;;;;;92.32;24.48;;;;;;;-1.18;100.00;104034.72;5052416;28;20060;-74
2022/01/12 08:04:11;;;;;;;68.10;22.63;;;;;;;-1.18;100.00;104033.84;5051522;28;20408;-74
2022/01/12 08:06:37;;;;;;;75.82;25.00;;;;;;;-1.20;100.00;104035.56;5051592;28;20082;-73
2022/01/12 08:09:02;;;;;;;87.00;24.50;;;;;;;-1.21;100.00;104036.41;5051782;28;20037;-73
2022/01/12 08:11:29;;;;;;;94.60;29.42;;;;;;;-1.21;100.00;104049.50;5052275;28;20431;-72
2022/01/12 08:13:54;;;;;;;80.43;26.27;;;;;;;-1.18;100.00;104052.13;5050457;28;20155;-72
2022/01/12 08:16:20;;;;;;;81.80;25.10;;;;;;;-1.15;100.00;104049.53;5051591;28;20045;-72
2022/01/12 08:18:45;;;;;;;77.65;24.48;;;;;;;-1.11;100.00;104052.19;5051909;28;20029;-74
2022/01/12 08:21:10;;;;;;;75.78;24.63;;;;;;;-1.07;100.00;104050.50;5051508;28;20032;-74
2022/01/12 08:23:36;;;;;;;83.38;25.80;;;;;;;-1.03;100.00;104057.53;5033851;28;20021;-72
2022/01/12 08:26:01;;;;;;;87.05;24.08;;;;;;;-1.00;100.00;104059.28;5051438;28;20040;-72
2022/01/12 08:28:27;;;;;;;86.60;26.17;;;;;;;-0.96;100.00;104066.28;5033137;28;20120;-71
2022/01/12 08:30:52;;;;;;;87.68;24.70;;;;;;;-0.89;100.00;104062.88;5051707;28;20187;-72
2022/01/12 08:33:18;;;;;;;82.82;24.17;;;;;;;-0.83;100.00;104070.78;5051224;28;20037;-74
2022/01/12 08:35:43;;;;;;;88.97;24.58;;;;;;;-0.75;100.00;104078.69;5050194;28;20033;-73
2022/01/12 08:38:09;;;;;;;81.70;24.27;;;;;;;-0.66;100.00;104073.53;5051426;28;20027;-72
2022/01/12 08:40:38;;;;;;;105.65;26.70;;;;;;;-0.56;100.00;104085.81;5051013;28;20033;-74
2022/01/12 08:43:06;;;;;;;128.55;26.52;;;;;;;-0.46;100.00;104080.66;5051706;28;20024;-72
2022/01/12 08:45:32;;;;;;;186.30;27.50;;;;;;;-0.38;100.00;104084.22;5051060;28;20091;-73
2022/01/12 08:47:57;;;;;;;133.60;26.50;;;;;;;-0.31;100.00;104088.66;5049791;28;20040;-71
2022/01/12 08:50:26;;;;;;;235.15;27.63;;;;;;;-0.20;100.00;104078.25;5049867;28;20509;-73
2022/01/12 08:52:58;;;;;;;80.18;22.30;;;;;;;-0.11;100.00;104086.16;5050646;28;20108;-73
2022/01/12 08:55:31;;;;;;;127.18;22.80;;;;;;;-0.05;100.00;104088.81;5051195;28;20045;-73
2022/01/12 08:58:01;;;;;;;76.60;20.33;;;;;;;0.02;100.00;104094.97;5050666;28;20033;-72
2022/01/12 09:00:44;;;;;;;60.00;18.92;;;;;;;0.08;100.00;104102.84;5050349;28;20186;-71
2022/01/12 09:03:16;;;;;;;61.47;18.50;;;;;;;0.16;100.00;104110.75;5050069;28;20036;-73
2022/01/12 09:05:45;;;;;;;46.30;16.73;;;;;;;0.22;100.00;104113.41;5049091;28;20067;-70
2022/01/12 09:08:14;;;;;;;107.38;19.38;;;;;;;0.26;100.00;104123.03;5050932;28;20044;-73
2022/01/12 09:10:42;;;;;;;96.65;19.50;;;;;;;0.29;100.00;104128.28;5050313;28;20024;-73
2022/01/12 09:13:11;;;;;;;92.57;20.52;;;;;;;0.35;100.00;104132.69;5050363;28;20039;-72
2022/01/12 09:15:43;;;;;;;197.05;20.48;;;;;;;0.35;100.00;104135.31;5050065;28;20033;-71
2022/01/12 09:18:13;;;;;;;83.72;18.20;;;;;;;0.37;100.00;104143.16;5050619;28;20043;-72
2022/01/12 09:20:49;;;;;;;84.78;18.35;;;;;;;0.38;100.00;104140.56;5050611;28;20464;-73
2022/01/12 09:23:17;;;;;;;63.38;17.70;;;;;;;0.39;100.00;104154.53;5049224;28;20037;-71
2022/01/12 09:25:44;;;;;;;86.75;19.13;;;;;;;0.44;100.00;104150.19;5050537;28;20101;-72
2022/01/12 09:28:17;;;;;;;68.30;17.27;;;;;;;0.56;100.00;104152.88;5048844;28;20047;-73
2022/01/12 09:30:51;;;;;;;103.07;18.15;;;;;;;0.65;100.00;104157.28;5050610;28;20040;-74
2022/01/12 09:33:19;;;;;;;72.30;16.63;;;;;;;0.72;100.00;104155.53;5050522;28;20033;-73
2022/01/12 09:35:50;;;;;;;212.10;19.35;;;;;;;0.77;100.00;104157.31;5049982;28;20036;-72
2022/01/12 09:38:22;;;;;;;141.35;16.65;;;;;;;0.80;100.00;104149.47;5050435;28;20410;-70
2022/01/12 09:40:56;;;;;;;99.30;17.40;;;;;;;0.87;100.00;104155.63;5049095;28;20044;-70
2022/01/12 09:43:25;;;;;;;84.55;17.42;;;;;;;0.91;100.00;104173.13;5050016;28;20039;-71
2022/01/12 09:45:52;;;;;;;172.77;17.08;;;;;;;0.95;100.00;104166.13;5050243;28;20025;-72
2022/01/12 09:48:21;;;;;;;135.15;16.42;;;;;;;1.04;100.00;104171.41;5050123;28;20055;-70
2022/01/12 09:50:47;;;;;;;139.93;18.20;;;;;;;1.15;100.00;104181.91;5049657;28;20029;-70
2022/01/12 09:53:12;;;;;;;144.45;20.45;;;;;;;1.33;100.00;104181.06;5049965;28;20028;-70
2022/01/12 09:55:38;;;;;;;215.27;16.25;;;;;;;1.36;100.00;104173.25;5049749;28;20111;-70
2022/01/12 09:58:08;;;;;;;216.93;20.27;;;;;;;1.41;100.00;104169.72;5050131;28;20045;-72
2022/01/12 10:00:54;;;;;;;193.82;18.05;;;;;;;1.50;100.00;104171.50;5049853;28;20032;-73
2022/01/12 10:03:23;;;;;;;366.98;24.38;;;;;;;1.53;100.00;104175.88;5048415;28;20037;-73
2022/01/12 10:05:53;;;;;;;266.88;20.48;;;;;;;1.58;100.00;104182.88;5049315;28;20091;-72
2022/01/12 10:08:27;;;;;;;197.00;19.77;;;;;;;1.66;100.00;104184.66;5050027;28;20040;-71
2022/01/12 10:11:03;;;;;;;129.45;20.13;;;;;;;1.77;100.00;104186.38;5048284;28;20036;-72
2022/01/12 10:13:33;;;;;;;146.93;22.88;;;;;;;1.89;100.00;104196.00;5050049;28;20071;-72
2022/01/12 10:16:15;;;;;;;158.55;23.10;;;;;;;2.00;100.00;104200.38;5049004;28;20053;-73
2022/01/12 10:19:03;;;;;;;243.05;18.10;;;;;;;2.00;100.00;104192.50;5048419;28;20094;-71
2022/01/12 10:21:37;;;;;;;161.77;19.25;;;;;;;2.02;100.00;104193.41;5048770;28;20041;-73
2022/01/12 10:24:09;;;;;;;439.85;20.10;;;;;;;2.10;100.00;104192.47;5049722;28;20060;-73
2022/01/12 10:26:40;;;;;;;174.95;14.73;;;;;;;2.06;100.00;104188.13;5047968;28;20043;-73
2022/01/12 10:29:19;;;;;;;;;;;;;;;2.13;100.00;104183.72;5050005;28;20036;-74
2022/01/12 10:31:55;;;;;;;162.35;14.23;;;;;;;2.19;100.00;104177.59;5031722;28;20222;-70
2022/01/12 10:34:27;;;;;;;329.83;19.48;;;;;;;2.13;100.00;104178.47;5049977;28;20048;-70
2022/01/12 10:36:54;;;;;;;147.00;14.48;;;;;;;2.11;100.00;104175.84;5049467;28;20475;-70
2022/01/12 10:39:24;;;;;;;383.15;18.70;;;;;;;2.10;100.00;104175.84;5048968;28;20029;-71
2022/01/12 10:42:07;;;;;;;114.38;16.13;;;;;;;2.17;100.00;104188.13;5049229;28;20468;-72
2022/01/12 10:44:38;;;;;;;108.15;15.95;;;;;;;2.24;100.00;104184.59;5049402;28;20029;-74
2022/01/12 10:47:09;;;;;;;76.07;14.63;;;;;;;2.35;100.00;104176.69;5049665;28;20021;-71
2022/01/12 10:49:37;;;;;;;196.85;15.80;;;;;;;2.50;100.00;104181.03;5049519;28;20078;-74
2022/01/12 10:52:05;;;;;;;164.35;16.00;;;;;;;2.62;100.00;104188.00;5049694;28;20028;-73
2022/01/12 10:54:45;;;;;;;164.32;17.80;;;;;;;2.67;100.00;104201.13;5049951;28;20438;-74
2022/01/12 10:57:25;;;;;;;132.95;13.52;;;;;;;2.73;100.00;104206.38;5049586;28;20033;-72
2022/01/12 11:00:10;;;;;;;191.13;13.77;;;;;;;2.77;100.00;104197.59;5049268;28;20033;-73
2022/01/12 11:02:38;;;;;;;50.65;11.38;;;;;;;2.91;100.00;104181.75;5049455;28;20113;-73
2022/01/12 11:05:06;;;;;;;111.25;13.45;;;;;;;2.90;100.00;104182.63;5049475;28;20047;-72
2022/01/12 11:07:31;;;;;;;287.55;15.52;;;;;;;2.91;100.00;104168.59;5049274;28;20036;-73
2022/01/12 11:09:59;;;;;;;101.25;13.65;;;;;;;3.02;100.00;104177.31;5049491;28;20041;-71
2022/01/12 11:12:25;;;;;;;157.82;13.82;;;;;;;3.15;100.00;104180.72;5049355;28;20061;-72
2022/01/12 11:14:51;;;;;;;214.15;14.43;;;;;;;3.15;100.00;104176.38;5049146;28;20378;-73
2022/01/12 11:17:16;;;;;;;58.28;12.32;;;;;;;3.21;100.00;104164.03;5047517;28;20334;-76
2022/01/12 11:19:54;;;;;;;61.13;12.63;;;;;;;3.32;100.00;104168.34;5049258;28;20063;-73
2022/01/12 11:22:37;;;;;;;86.10;11.30;;;;;;;3.33;100.00;104145.56;5049152;28;20109;-73
2022/01/12 11:25:03;;;;;;;215.82;14.77;;;;;;;3.34;100.00;104147.28;5049300;28;20056;-72
2022/01/12 11:27:28;;;;;;;239.20;12.18;;;;;;;3.39;100.00;104155.13;5051352;28;20067;-73
2022/01/12 11:29:54;;;;;;;126.63;11.02;;;;;;;3.42;100.00;104153.38;5050909;28;20053;-75
2022/01/12 11:32:23;;;;;;;115.40;10.40;;;;;;;3.48;100.00;104145.44;5050436;28;20077;-76
2022/01/12 11:35:03;;;;;;;150.85;10.88;;;;;;;3.56;100.00;104141.88;5051019;28;20364;-74
2022/01/12 11:37:29;;;;;;;87.03;10.27;;;;;;;3.65;100.00;104133.88;5051948;28;20051;-74
2022/01/12 11:40:06;;;;;;;127.90;9.15;;;;;;;3.69;100.00;104138.25;5051711;28;20422;-74
2022/01/12 11:42:36;;;;;;;202.60;10.10;;;;;;;3.69;100.00;104149.63;5050649;28;20362;-74
2022/01/12 11:45:03;;;;;;;205.98;13.63;;;;;;;3.71;100.00;104144.34;5052060;28;20102;-73
2022/01/12 11:47:31;;;;;;;174.98;11.02;;;;;;;3.74;100.00;104141.69;5051936;28;20070;-76
2022/01/12 11:49:57;;;;;;;274.38;12.18;;;;;;;3.74;100.00;104141.69;5052110;28;20124;-74
2022/01/12 11:52:26;;;;;;;288.88;12.02;;;;;;;3.77;100.00;104146.94;5052110;28;20097;-73
2022/01/12 11:55:01;;;;;;;277.88;12.15;;;;;;;3.78;100.00;104153.09;5052008;28;20040;-72
2022/01/12 11:57:35;;;;;;;92.78;11.57;;;;;;;3.82;100.00;104145.16;5051667;28;20029;-74
2022/01/12 12:00:20;;;;;;;60.40;12.02;;;;;;;3.87;100.00;104131.94;5051606;28;20160;-74
2022/01/12 12:02:49;;;;;;;180.00;13.40;;;;;;;4.03;100.00;104133.53;5052332;28;20025;-74
2022/01/12 12:05:31;;;;;;;63.97;11.15;;;;;;;4.04;100.00;104132.63;5051202;28;20061;-71
2022/01/12 12:08:02;;;;;;;261.08;14.02;;;;;;;4.04;100.00;104135.25;5051414;28;20119;-72
2022/01/12 12:10:29;;;;;;;90.68;12.43;;;;;;;4.07;100.00;104131.72;5051202;28;20036;-73
2022/01/12 12:12:57;;;;;;;131.50;11.52;;;;;;;4.09;100.00;104131.69;5051241;28;20599;-71
2022/01/12 12:15:24;;;;;;;213.48;14.35;;;;;;;4.12;100.00;104126.38;5049927;28;20100;-72
2022/01/12 12:17:50;;;;;;;176.25;12.65;;;;;;;4.20;100.00;104116.66;5051101;28;20049;-73
2022/01/12 12:20:19;;;;;;;116.75;11.02;;;;;;;4.26;100.00;104118.34;5051482;28;20033;-74
2022/01/12 12:22:46;;;;;;;44.78;9.95;;;;;;;4.35;100.00;104124.38;5051385;28;20025;-71
2022/01/12 12:25:24;;;;;;;88.43;11.93;;;;;;;4.46;100.00;104118.09;5051476;28;20017;-73